createdAt,value
2023-03-13T08:30:29.313Z,72.83
2023-03-13T08:31:29.438Z,73.48
2023-03-13T08:32:30.375Z,76.38
2023-03-13T08:33:30.709Z,73.48
2023-03-13T08:34:30.232Z,72.19
2023-03-13T08:35:30.232Z,72.03
2023-03-13T08:36:30.160Z,72.67
2023-03-13T08:37:30.145Z,71.38
2023-03-13T08:38:30.127Z,73.80
2023-03-13T08:39:30.115Z,72.51
2023-03-13T08:40:30.131Z,72.83
2023-03-13T08:41:30.112Z,70.42
2023-03-13T08:42:30.095Z,72.03
2023-03-13T08:43:30.067Z,72.51
2023-03-13T08:44:30.062Z,72.51
2023-03-13T08:45:30.108Z,74.12
2023-03-13T08:46:30.119Z,73.32
2023-03-13T08:47:30.028Z,73.80
2023-03-13T08:48:30.014Z,72.35
2023-03-13T08:49:30.000Z,73.80
2023-03-13T08:50:30.003Z,74.28
2023-03-13T08:51:30.014Z,73.32
2023-03-13T08:52:29.969Z,72.99
2023-03-13T08:53:29.959Z,71.54
2023-03-13T08:54:29.967Z,71.70
2023-03-13T08:55:29.940Z,73.64
2023-03-13T08:56:29.957Z,73.96
2023-03-13T08:57:29.895Z,72.67
2023-03-13T08:58:29.889Z,79.12
2023-03-13T08:59:29.882Z,73.96
2023-03-13T09:00:29.868Z,72.35
2023-03-13T09:01:29.969Z,72.99
2023-03-13T09:02:29.882Z,73.80
2023-03-13T09:03:29.878Z,72.35
2023-03-13T09:04:30.222Z,72.99
2023-03-13T09:05:29.811Z,73.80
2023-03-13T09:06:29.804Z,73.64
2023-03-13T09:07:29.826Z,74.12
2023-03-13T09:08:29.814Z,72.67
2023-03-13T09:09:29.784Z,72.35
2023-03-13T09:10:29.762Z,71.22
2023-03-13T09:11:29.758Z,73.64
2023-03-13T09:12:31.404Z,73.15
2023-03-13T09:13:29.729Z,73.32
2023-03-13T09:14:29.746Z,73.48
2023-03-13T09:15:29.739Z,73.15
2023-03-13T09:16:29.672Z,71.70
2023-03-13T09:17:30.273Z,71.54
2023-03-13T09:18:29.802Z,73.64
2023-03-13T09:19:29.638Z,77.50
2023-03-13T09:20:29.642Z,72.67
2023-03-13T09:21:29.631Z,71.54
2023-03-13T09:22:29.620Z,72.19
2023-03-13T09:23:29.615Z,72.67
2023-03-13T09:24:29.601Z,71.87
2023-03-13T09:25:29.584Z,72.03
2023-03-13T09:26:30.109Z,72.51
2023-03-13T09:27:29.562Z,71.87
2023-03-13T09:28:29.570Z,72.67
2023-03-13T09:29:29.575Z,70.25
2023-03-13T09:30:29.515Z,72.03
2023-03-13T09:31:29.505Z,70.25
2023-03-13T09:32:29.549Z,68.48
2023-03-13T09:33:29.489Z,71.22
2023-03-13T09:34:29.491Z,71.70
2023-03-13T09:35:29.443Z,70.42
2023-03-13T09:36:29.451Z,71.70
2023-03-13T09:37:29.442Z,70.90
2023-03-13T09:38:29.419Z,70.90
2023-03-13T09:39:29.460Z,71.87
2023-03-13T09:40:29.426Z,71.38
2023-03-13T09:41:29.395Z,71.70
2023-03-13T09:42:29.371Z,72.35
2023-03-13T09:43:29.367Z,72.51
2023-03-13T09:44:29.379Z,72.51
2023-03-13T09:45:29.390Z,73.48
2023-03-13T09:46:29.389Z,72.03
2023-03-13T09:47:29.307Z,75.57
2023-03-13T09:48:29.340Z,74.77
2023-03-13T09:49:29.414Z,71.06
2023-03-13T09:50:29.330Z,73.48
2023-03-13T09:51:29.264Z,73.48
2023-03-13T09:52:29.269Z,73.80
2023-03-13T09:53:29.249Z,72.83
2023-03-13T09:54:29.251Z,71.22
2023-03-13T09:55:29.223Z,71.22
2023-03-13T09:56:29.241Z,71.54
2023-03-13T09:57:29.195Z,70.74
2023-03-13T09:58:29.172Z,70.90
2023-03-13T09:59:29.177Z,69.13
2023-03-13T10:00:29.195Z,71.87
2023-03-13T10:01:29.157Z,71.06
2023-03-13T10:02:29.122Z,72.51
2023-03-13T10:03:29.139Z,70.74
2023-03-13T10:04:29.181Z,71.54
2023-03-13T10:05:29.116Z,71.54
2023-03-13T10:06:29.086Z,70.09
2023-03-13T10:07:29.085Z,70.09
2023-03-13T10:08:29.057Z,71.87
2023-03-13T10:09:29.038Z,68.96
2023-03-13T10:25:59.750Z,72.19
2023-03-13T10:26:59.771Z,73.48
2023-03-13T10:27:59.701Z,71.87
2023-03-13T10:28:59.738Z,71.70
2023-03-13T10:29:59.692Z,72.51
2023-03-13T10:30:59.794Z,70.42
2023-03-13T10:31:59.672Z,73.32
2023-03-13T10:32:59.754Z,72.35
2023-03-13T10:33:59.644Z,72.19
2023-03-13T10:34:59.642Z,72.03
2023-03-13T10:35:59.623Z,72.19
2023-03-13T10:36:59.594Z,70.90
2023-03-13T10:37:59.619Z,70.74
2023-03-13T10:38:59.578Z,72.51
2023-03-13T10:39:59.536Z,71.54
2023-03-13T10:40:59.600Z,69.61
2023-03-13T10:41:59.542Z,73.15
2023-03-13T10:42:59.545Z,71.87
2023-03-13T10:43:59.553Z,71.06
2023-03-13T10:44:59.495Z,71.54
2023-03-13T10:45:59.495Z,70.74
2023-03-13T10:46:59.491Z,72.51
2023-03-13T10:47:59.440Z,71.70
2023-03-13T10:48:59.422Z,71.22
2023-03-13T10:49:59.437Z,69.29
2023-03-13T10:51:01.938Z,71.38
2023-03-13T10:51:59.454Z,70.58
2023-03-13T10:52:59.414Z,70.90
2023-03-13T10:53:59.431Z,70.90
2023-03-13T10:54:59.419Z,72.19
2023-03-13T10:55:59.374Z,73.48
2023-03-13T10:56:59.323Z,70.25
2023-03-13T10:57:59.346Z,69.77
2023-03-13T10:58:59.398Z,72.67
2023-03-13T10:59:59.308Z,70.25
2023-03-13T11:00:59.278Z,71.70
2023-03-13T11:01:59.291Z,72.99
2023-03-13T11:02:59.465Z,70.90
2023-03-13T11:03:59.369Z,72.67
2023-03-13T11:04:59.224Z,72.99
2023-03-13T11:05:59.237Z,73.15
2023-03-13T11:07:00.371Z,71.22
2023-03-13T11:08:00.442Z,72.03
2023-03-13T11:09:00.379Z,71.22
2023-03-13T11:10:00.311Z,71.70
2023-03-13T11:11:00.313Z,71.38
2023-03-13T11:12:00.265Z,72.19
2023-03-13T11:13:00.436Z,73.64
2023-03-13T11:14:00.400Z,74.28
2023-03-13T11:15:00.358Z,72.83
2023-03-13T11:16:00.342Z,72.99
2023-03-13T11:17:00.333Z,71.87
2023-03-13T11:18:00.235Z,72.51
2023-03-13T11:19:00.174Z,72.35
2023-03-13T11:20:00.177Z,80.89
2023-03-13T11:21:12.186Z,74.12
2023-03-13T11:22:00.203Z,72.99
2023-03-13T11:23:00.183Z,72.67
2023-03-13T11:24:00.135Z,71.70
2023-03-13T11:25:00.124Z,72.35
2023-03-13T11:26:00.122Z,73.48
2023-03-13T11:27:04.779Z,72.35
2023-03-13T11:28:02.109Z,72.99
2023-03-13T11:29:00.091Z,72.19
2023-03-13T11:30:00.178Z,70.58
2023-03-13T11:31:00.050Z,72.03
2023-03-13T11:32:00.091Z,72.83
2023-03-13T11:33:00.087Z,72.67
2023-03-13T11:34:00.037Z,73.80
2023-03-13T11:34:59.985Z,71.38
2023-03-13T11:36:00.103Z,70.42
2023-03-13T11:36:59.982Z,72.51
2023-03-13T11:37:59.985Z,74.60
2023-03-13T11:38:59.971Z,78.79
2023-03-13T11:39:59.968Z,72.19
2023-03-13T11:40:59.954Z,72.03
2023-03-13T11:41:59.913Z,71.22
2023-03-13T11:42:59.937Z,71.38
2023-03-13T11:43:59.923Z,72.99
2023-03-13T11:44:59.904Z,70.90
2023-03-13T11:46:00.112Z,72.99
2023-03-13T11:47:00.096Z,73.96
2023-03-13T11:48:00.053Z,72.03
2023-03-13T11:48:59.885Z,75.41
2023-03-13T11:49:59.850Z,76.38
2023-03-13T11:50:59.842Z,71.38
2023-03-13T11:51:59.815Z,71.87
2023-03-13T11:52:59.891Z,72.83
2023-03-13T11:53:59.808Z,72.67
2023-03-13T11:54:59.793Z,74.44
2023-03-13T11:55:59.839Z,72.19
2023-03-13T11:56:59.765Z,73.48
2023-03-13T11:57:59.773Z,72.03
2023-03-13T11:58:59.759Z,73.96
2023-03-13T11:59:59.721Z,72.51
2023-03-13T12:00:59.739Z,71.22
2023-03-13T12:01:59.724Z,73.48
2023-03-13T12:02:59.711Z,72.99
2023-03-13T12:03:59.746Z,73.15
2023-03-13T12:04:59.734Z,71.70
2023-03-13T12:05:59.653Z,73.64
2023-03-13T12:06:59.661Z,72.03
2023-03-13T12:08:00.113Z,72.67
2023-03-13T12:08:59.631Z,70.74
2023-03-13T12:09:59.627Z,73.96
2023-03-13T12:10:59.608Z,72.35
2023-03-13T12:11:59.602Z,70.09
2023-03-13T12:12:59.589Z,72.35
2023-03-13T12:13:59.579Z,73.96
2023-03-13T12:14:59.553Z,73.15
2023-03-13T12:15:59.531Z,75.25
2023-03-13T12:16:59.914Z,72.99
2023-03-13T12:17:59.675Z,82.18
2023-03-13T12:18:59.516Z,82.18
2023-03-13T12:19:59.507Z,75.25
2023-03-13T12:20:59.516Z,73.15
2023-03-13T12:21:59.491Z,71.70
2023-03-13T12:22:59.489Z,72.83
2023-03-13T12:23:59.569Z,71.38
2023-03-13T12:24:59.466Z,72.83
2023-03-13T12:25:59.431Z,73.96
2023-03-13T12:26:59.428Z,72.35
2023-03-13T12:27:59.486Z,73.48
2023-03-13T12:28:59.404Z,72.83
2023-03-13T12:29:59.397Z,74.93
2023-03-13T12:30:59.426Z,73.32
2023-03-13T12:31:59.364Z,72.03
2023-03-13T12:32:59.468Z,73.48
2023-03-13T12:33:59.360Z,72.83
2023-03-13T12:34:59.351Z,72.67
2023-03-13T12:35:59.410Z,72.51
2023-03-13T12:36:59.320Z,73.96
2023-03-13T12:37:59.326Z,72.35
2023-03-13T12:38:59.356Z,73.96
2023-03-13T12:39:59.294Z,72.51
2023-03-13T12:40:59.265Z,73.15
2023-03-13T12:41:59.258Z,72.35
2023-03-13T12:42:59.281Z,73.32
2023-03-13T12:44:09.022Z,73.80
2023-03-13T12:45:00.271Z,73.64
2023-03-13T12:45:59.363Z,72.19
2023-03-13T12:46:59.224Z,71.22
2023-03-13T12:47:59.227Z,72.99
2023-03-13T12:48:59.194Z,71.54
2023-03-13T12:49:59.188Z,70.58
2023-03-13T12:50:59.182Z,69.77
2023-03-13T12:51:59.161Z,70.90
2023-03-13T12:52:59.127Z,72.99
2023-03-13T12:53:59.203Z,72.67
2023-03-13T12:54:59.160Z,72.51
2023-03-13T12:55:59.111Z,71.38
2023-03-13T12:56:59.087Z,73.15
2023-03-13T12:57:59.087Z,74.60
2023-03-13T12:58:59.090Z,73.64
2023-03-13T12:59:59.126Z,72.67
2023-03-13T13:00:59.036Z,72.03
2023-03-13T13:01:59.053Z,73.96
2023-03-13T13:02:59.759Z,73.32
2023-03-13T13:03:59.071Z,72.51
2023-03-13T13:04:59.016Z,74.93
2023-03-13T13:05:59.030Z,73.48
2023-03-13T13:06:58.970Z,75.09
2023-03-13T13:07:58.979Z,78.15
2023-03-13T13:08:58.950Z,74.44
2023-03-13T13:09:58.961Z,77.50
2023-03-13T13:10:58.962Z,73.48
2023-03-13T13:11:59.590Z,73.15
2023-03-13T13:12:58.914Z,76.22
2023-03-13T13:13:58.887Z,74.44
2023-03-13T13:14:58.903Z,72.99
2023-03-13T13:15:58.923Z,79.92
2023-03-13T13:16:58.883Z,73.64
2023-03-13T13:17:58.845Z,74.44
2023-03-13T13:18:58.854Z,75.57
2023-03-13T13:19:58.845Z,73.15
2023-03-13T13:20:58.809Z,73.15
2023-03-13T13:21:58.902Z,72.99
2023-03-13T13:22:58.783Z,73.48
2023-03-13T13:23:58.783Z,73.80
2023-03-13T13:24:58.923Z,73.80
2023-03-13T13:25:58.762Z,73.48
2023-03-13T13:26:58.806Z,75.41
2023-03-13T13:27:59.160Z,79.28
2023-03-13T13:28:58.722Z,73.96
2023-03-13T13:29:58.715Z,73.96
2023-03-13T13:30:58.921Z,73.48
2023-03-13T13:31:58.819Z,72.67
2023-03-13T13:32:58.724Z,71.38
2023-03-13T13:33:58.676Z,72.83
2023-03-13T13:34:58.665Z,72.35
2023-03-13T13:35:58.780Z,71.22
2023-03-13T13:36:58.631Z,71.54
2023-03-13T13:37:58.646Z,72.51
2023-03-13T13:38:58.611Z,72.99
2023-03-13T13:39:58.632Z,78.79
2023-03-13T13:40:58.605Z,75.89
2023-03-13T13:41:58.618Z,73.64
2023-03-13T13:42:58.590Z,73.48
2023-03-13T13:43:58.564Z,75.25
2023-03-13T13:44:58.588Z,76.05
2023-03-13T13:45:58.601Z,73.15
2023-03-13T13:46:58.544Z,72.83
2023-03-13T13:47:59.564Z,74.12
2023-03-13T13:48:58.500Z,72.83
2023-03-13T13:49:58.503Z,72.83
2023-03-13T13:50:58.497Z,73.15
2023-03-13T13:51:58.490Z,72.99
2023-03-13T13:52:58.523Z,75.25
2023-03-13T13:53:58.479Z,70.90
2023-03-13T13:54:58.449Z,74.28
2023-03-13T13:55:58.449Z,74.28
2023-03-13T13:56:58.492Z,73.48
2023-03-13T13:57:58.445Z,74.60
2023-03-13T13:58:58.433Z,74.93
2023-03-13T13:59:58.442Z,73.96
2023-03-13T14:04:36.280Z,72.99
2023-03-13T14:05:36.077Z,75.09
2023-03-13T14:06:36.099Z,76.22
2023-03-13T14:07:36.069Z,76.86
2023-03-13T14:08:36.033Z,74.77
2023-03-13T14:09:37.382Z,72.99
2023-03-13T14:10:36.017Z,80.24
2023-03-13T14:11:36.001Z,75.89
2023-03-13T14:12:36.006Z,74.77
2023-03-13T14:13:36.001Z,76.38
2023-03-13T14:14:36.020Z,76.22
2023-03-13T14:15:35.964Z,72.83
2023-03-13T14:16:35.956Z,72.03
2023-03-13T14:17:35.934Z,73.80
2023-03-13T14:18:35.968Z,75.09
2023-03-13T14:19:35.922Z,73.80
2023-03-13T14:20:35.964Z,73.32
2023-03-13T14:21:35.892Z,74.60
2023-03-13T14:22:35.914Z,74.77
2023-03-13T14:23:35.877Z,76.86
2023-03-13T14:24:35.864Z,73.48
2023-03-13T14:25:35.881Z,74.77
2023-03-13T14:26:35.861Z,73.96
2023-03-13T14:27:35.839Z,73.48
2023-03-13T14:28:35.838Z,73.48
2023-03-13T14:29:35.807Z,73.80
2023-03-13T14:30:35.798Z,74.77
2023-03-13T14:31:35.907Z,73.48
2023-03-13T14:32:37.129Z,72.51
2023-03-13T14:33:39.272Z,72.99
2023-03-13T14:34:36.991Z,71.70
2023-03-13T14:35:36.942Z,73.48
2023-03-13T14:36:36.882Z,72.19
2023-03-13T14:37:36.849Z,72.35
2023-03-13T14:38:36.836Z,73.32
2023-03-13T14:39:36.870Z,73.80
2023-03-13T14:40:36.821Z,71.38
2023-03-13T14:41:36.843Z,73.15
2023-03-13T14:42:36.804Z,75.57
2023-03-13T14:43:36.803Z,72.19
2023-03-13T14:44:36.810Z,72.83
2023-03-13T14:45:36.779Z,72.51
2023-03-13T14:46:36.927Z,73.96
2023-03-13T14:47:36.783Z,73.15
2023-03-13T14:48:36.733Z,71.87
2023-03-13T14:49:36.726Z,74.77
2023-03-13T14:50:36.721Z,74.12
2023-03-13T14:51:36.729Z,72.51
2023-03-13T14:52:36.683Z,73.32
2023-03-13T14:53:36.697Z,73.64
2023-03-13T14:54:36.673Z,72.19
2023-03-13T14:55:36.646Z,71.06
2023-03-13T14:56:36.722Z,72.67
2023-03-13T14:57:36.643Z,72.19
2023-03-13T14:58:37.848Z,71.87
2023-03-13T14:59:36.604Z,71.22
2023-03-13T15:00:36.665Z,72.51
2023-03-13T15:01:36.581Z,72.99
2023-03-13T15:02:36.649Z,72.35
2023-03-13T15:03:36.589Z,75.09
2023-03-13T15:04:37.622Z,74.44
2023-03-13T15:05:36.538Z,72.99
2023-03-13T15:06:36.561Z,72.35
2023-03-13T15:07:36.578Z,72.35
2023-03-13T15:08:36.588Z,72.99
2023-03-13T15:09:36.521Z,79.76
2023-03-13T15:10:36.509Z,71.22
2023-03-13T15:11:36.476Z,72.67
2023-03-13T15:12:36.464Z,73.15
2023-03-13T15:13:36.518Z,73.15
2023-03-13T15:14:36.450Z,74.60
2023-03-13T15:15:36.472Z,72.19
2023-03-13T15:16:36.487Z,71.38
2023-03-13T15:17:36.421Z,74.44
2023-03-13T15:18:36.472Z,72.35
2023-03-13T15:19:36.442Z,73.80
2023-03-13T15:20:36.381Z,71.38
2023-03-13T15:21:36.374Z,72.03
2023-03-13T15:22:36.373Z,72.19
2023-03-13T15:23:36.323Z,71.38
2023-03-13T15:24:36.338Z,70.09
2023-03-13T15:25:36.350Z,73.48
2023-03-13T15:26:36.322Z,73.48
2023-03-13T15:27:36.294Z,70.90
2023-03-13T15:28:36.319Z,72.03
2023-03-13T15:29:36.280Z,73.96
2023-03-13T15:30:36.258Z,73.15
2023-03-13T15:31:36.392Z,74.77
2023-03-13T15:32:36.329Z,73.15
2023-03-13T15:33:36.235Z,70.25
2023-03-13T15:34:36.264Z,72.51
2023-03-13T15:35:36.266Z,72.51
2023-03-13T15:36:36.204Z,73.80
2023-03-13T15:37:36.173Z,72.83
2023-03-13T15:38:36.170Z,71.38
2023-03-13T15:39:36.236Z,72.51
2023-03-13T15:40:36.161Z,71.38
2023-03-13T15:41:36.158Z,72.03
2023-03-13T15:42:36.140Z,72.03
2023-03-13T15:43:36.148Z,72.51
2023-03-13T15:44:36.140Z,72.83
2023-03-13T15:45:36.174Z,69.93
2023-03-13T15:46:36.413Z,72.99
2023-03-13T15:47:36.081Z,77.67
2023-03-13T15:48:36.108Z,75.41
2023-03-13T15:49:36.056Z,72.03
2023-03-13T15:50:36.115Z,72.35
2023-03-13T15:51:36.037Z,72.19
2023-03-13T15:52:36.047Z,71.54
2023-03-13T15:53:35.997Z,72.99
2023-03-13T15:54:35.982Z,73.15
2023-03-13T15:55:36.490Z,73.48
2023-03-13T15:56:36.072Z,71.22
2023-03-13T15:57:35.979Z,70.90
2023-03-13T15:58:35.967Z,72.19
2023-03-13T15:59:37.156Z,71.06
2023-03-13T16:00:35.931Z,73.80
2023-03-13T16:01:36.262Z,71.70
2023-03-13T16:02:35.918Z,71.54
2023-03-13T16:03:35.899Z,70.74
2023-03-13T16:04:35.936Z,72.19
2023-03-13T16:05:35.841Z,70.58
2023-03-13T16:06:36.619Z,70.42
2023-03-13T16:07:35.859Z,70.74
2023-03-13T16:08:36.859Z,71.54
2023-03-13T16:09:35.851Z,70.25
2023-03-13T16:10:35.940Z,71.22
2023-03-13T16:11:35.916Z,71.38
2023-03-13T16:12:35.988Z,73.48
2023-03-13T16:13:35.862Z,70.74
2023-03-13T16:14:35.804Z,70.90
2023-03-13T16:15:35.866Z,72.03
2023-03-13T16:16:37.580Z,72.19
2023-03-13T16:17:35.722Z,73.15
2023-03-13T16:18:35.812Z,72.99
2023-03-13T16:19:35.689Z,73.48
2023-03-13T16:20:35.733Z,72.35
2023-03-13T16:21:35.671Z,70.90
2023-03-13T16:22:36.718Z,70.74
2023-03-13T16:23:35.664Z,73.80
2023-03-13T16:24:35.661Z,72.51
2023-03-13T16:25:35.661Z,72.51
2023-03-13T16:26:35.633Z,71.70
2023-03-13T16:27:35.649Z,71.22
2023-03-13T16:28:35.598Z,71.87
2023-03-13T16:29:35.660Z,71.87
2023-03-13T16:30:35.579Z,71.70
2023-03-13T16:31:35.641Z,74.28
2023-03-13T16:32:35.765Z,71.06
2023-03-13T16:33:35.530Z,71.38
2023-03-13T16:34:35.520Z,72.51
2023-03-13T16:35:35.570Z,73.80
2023-03-13T16:36:35.506Z,74.12
2023-03-13T16:37:35.511Z,73.15
2023-03-13T16:38:35.695Z,72.35
2023-03-13T16:39:35.492Z,72.99
2023-03-13T16:40:35.496Z,72.35
2023-03-13T16:41:36.126Z,72.03
2023-03-13T16:42:35.454Z,74.60
2023-03-13T16:43:35.486Z,73.64
2023-03-13T16:44:35.444Z,71.22
2023-03-13T16:45:35.517Z,69.77
2023-03-13T16:46:35.490Z,72.35
2023-03-13T16:47:35.387Z,72.99
2023-03-13T16:48:35.447Z,71.54
2023-03-13T16:49:35.412Z,71.06
2023-03-13T16:50:36.043Z,70.90
2023-03-13T16:51:35.357Z,72.83
2023-03-13T16:52:35.337Z,71.06
2023-03-13T16:53:35.334Z,72.83
2023-03-13T16:54:35.372Z,72.19
2023-03-13T16:55:35.370Z,70.74
2023-03-13T16:56:35.366Z,71.70
2023-03-13T16:57:35.284Z,72.35
2023-03-13T16:58:35.287Z,70.58
2023-03-13T16:59:35.358Z,71.87
2023-03-13T17:00:35.268Z,69.93
2023-03-13T17:01:35.277Z,69.77
2023-03-13T17:02:35.266Z,69.77
2023-03-13T17:03:35.222Z,68.64
2023-03-13T17:04:35.427Z,72.19
2023-03-13T17:05:35.204Z,69.77
2023-03-13T17:06:35.243Z,69.13
2023-03-13T17:07:35.193Z,68.80
2023-03-13T17:08:35.198Z,71.38
2023-03-13T17:09:35.160Z,70.42
2023-03-13T17:10:35.192Z,71.54
2023-03-13T17:11:35.133Z,66.71
2023-03-13T17:12:35.126Z,70.74
2023-03-13T17:13:35.136Z,71.06
2023-03-13T17:14:35.112Z,70.25
2023-03-13T17:15:35.201Z,70.25
2023-03-13T17:16:35.087Z,69.29
2023-03-13T17:17:35.079Z,68.64
2023-03-13T17:18:35.064Z,70.42
2023-03-13T17:19:35.040Z,70.25
2023-03-13T17:20:35.085Z,68.80
2023-03-13T17:21:35.036Z,71.22
2023-03-13T17:22:35.022Z,67.68
2023-03-13T17:23:35.001Z,68.64
2023-03-13T17:24:35.005Z,70.09
2023-03-13T17:25:34.981Z,71.38
2023-03-13T17:26:35.025Z,70.25
2023-03-13T17:27:35.005Z,69.61
2023-03-13T17:28:34.959Z,69.93
2023-03-13T17:29:34.910Z,71.22
2023-03-13T17:30:34.915Z,69.77
2023-03-13T17:31:35.965Z,68.96
2023-03-13T17:32:34.935Z,68.00
2023-03-13T17:33:35.043Z,69.45
2023-03-13T17:34:34.865Z,69.13
2023-03-13T17:35:35.114Z,70.74
2023-03-13T17:36:34.951Z,68.32
2023-03-13T17:37:34.866Z,70.25
2023-03-13T17:38:34.859Z,66.06
2023-03-13T17:39:34.861Z,69.29
2023-03-13T17:40:36.707Z,69.29
2023-03-13T17:41:34.840Z,70.09
2023-03-13T17:42:35.813Z,68.96
2023-03-13T17:43:34.797Z,70.42
2023-03-13T17:44:34.813Z,67.68
2023-03-13T17:45:34.788Z,68.80
2023-03-13T17:46:34.812Z,68.48
2023-03-13T17:47:34.782Z,71.06
2023-03-13T17:48:34.761Z,69.29
2023-03-13T17:49:34.703Z,69.77
2023-03-13T17:50:34.747Z,69.13
2023-03-13T17:51:34.740Z,66.71
2023-03-13T17:52:34.738Z,68.80
2023-03-13T17:53:34.739Z,67.68
2023-03-13T17:54:34.659Z,68.96
2023-03-13T17:56:09.744Z,68.80
2023-03-13T17:56:34.993Z,66.39
2023-03-13T17:57:34.948Z,68.80
2023-03-13T17:59:10.619Z,69.61
2023-03-13T17:59:35.255Z,68.64
2023-03-13T18:01:11.850Z,69.13
2023-03-13T18:01:35.031Z,68.64
2023-03-13T18:02:34.638Z,69.61
2023-03-13T18:03:34.576Z,68.16
2023-03-13T18:04:34.608Z,70.90
2023-03-13T18:05:34.607Z,69.77
2023-03-13T18:06:34.595Z,70.09
2023-03-13T18:07:34.560Z,69.77
2023-03-13T18:08:34.656Z,70.90
2023-03-13T18:09:34.538Z,71.38
2023-03-13T18:10:34.537Z,71.22
2023-03-13T18:11:34.535Z,68.48
2023-03-13T18:12:34.527Z,71.54
2023-03-13T18:13:36.878Z,70.58
2023-03-13T18:14:34.452Z,69.29
2023-03-13T18:15:34.458Z,68.64
2023-03-13T18:16:34.542Z,68.64
2023-03-13T18:17:34.482Z,69.29
2023-03-13T18:18:34.461Z,69.61
2023-03-13T18:19:34.449Z,69.61
2023-03-13T18:20:34.474Z,69.29
2023-03-13T18:21:34.443Z,70.25
2023-03-13T18:22:34.424Z,68.80
2023-03-13T18:23:34.385Z,69.77
2023-03-13T18:24:34.451Z,70.25
2023-03-13T18:25:34.359Z,68.64
2023-03-13T18:26:34.375Z,69.77
2023-03-13T18:27:34.325Z,68.96
2023-03-13T18:28:34.316Z,69.77
2023-03-13T18:29:34.333Z,69.93
2023-03-13T18:30:34.322Z,71.22
2023-03-13T18:31:34.360Z,70.09
2023-03-13T18:32:34.340Z,71.38
2023-03-13T18:33:34.243Z,67.51
2023-03-13T18:34:34.241Z,71.06
2023-03-13T18:35:34.248Z,69.77
2023-03-13T18:36:34.329Z,69.77
2023-03-13T18:37:34.240Z,71.38
2023-03-13T18:38:34.193Z,68.32
2023-03-13T18:39:34.185Z,67.84
2023-03-13T18:40:34.163Z,66.71
2023-03-13T18:41:34.180Z,68.48
2023-03-13T18:42:34.231Z,68.16
2023-03-13T18:43:34.156Z,69.93
2023-03-13T18:44:34.189Z,68.64
2023-03-13T18:45:34.127Z,70.90
2023-03-13T18:46:34.191Z,68.64
2023-03-13T18:47:34.159Z,69.13
2023-03-13T18:48:34.077Z,69.93
2023-03-13T18:49:34.094Z,70.25
2023-03-13T18:50:34.117Z,68.96
2023-03-13T18:51:34.053Z,68.00
2023-03-13T18:52:34.121Z,66.23
2023-03-13T18:53:34.044Z,69.77
2023-03-13T18:54:34.040Z,69.61
2023-03-13T18:55:34.025Z,66.87
2023-03-13T18:56:34.092Z,69.13
2023-03-13T18:57:33.992Z,68.64
2023-03-13T18:58:34.017Z,68.64
2023-03-13T18:59:34.008Z,68.64
2023-03-13T19:00:33.991Z,68.64
2023-03-13T19:01:34.012Z,67.68
2023-03-13T19:02:34.053Z,68.00
2023-03-13T19:03:33.971Z,69.29
2023-03-13T19:04:33.910Z,69.61
2023-03-13T19:05:33.899Z,66.39
2023-03-13T19:06:33.995Z,66.71
2023-03-13T19:07:33.883Z,69.93
2023-03-13T19:08:34.071Z,70.58
2023-03-13T19:09:47.674Z,68.80
2023-03-13T19:10:34.926Z,67.84
2023-03-13T19:11:33.826Z,68.48
2023-03-13T19:12:33.829Z,69.93
2023-03-13T19:13:33.865Z,68.80
2023-03-13T19:14:33.814Z,66.71
2023-03-13T19:15:33.769Z,69.77
2023-03-13T19:16:33.897Z,68.00
2023-03-13T19:17:33.764Z,68.00
2023-03-13T19:18:33.772Z,68.96
2023-03-13T19:19:33.769Z,70.25
2023-03-13T19:20:33.750Z,70.90
2023-03-13T19:21:33.744Z,68.48
2023-03-13T19:22:33.706Z,68.32
2023-03-13T19:23:33.712Z,69.29
2023-03-13T19:24:33.718Z,66.87
2023-03-13T19:25:33.723Z,69.45
2023-03-13T19:26:33.684Z,66.55
2023-03-13T19:27:33.675Z,68.00
2023-03-13T19:28:33.680Z,68.96
2023-03-13T19:29:33.679Z,68.32
2023-03-13T19:30:33.603Z,70.25
2023-03-13T19:31:33.733Z,69.61
2023-03-13T19:32:33.640Z,68.96
2023-03-13T19:33:33.618Z,69.13
2023-03-13T19:34:33.596Z,69.45
2023-03-13T19:35:33.572Z,69.45
2023-03-13T19:36:35.482Z,68.64
2023-03-13T19:37:33.549Z,69.13
2023-03-13T19:38:33.598Z,68.00
2023-03-13T19:39:33.678Z,72.83
2023-03-13T19:40:33.548Z,68.96
2023-03-13T19:41:33.483Z,67.51
2023-03-13T19:42:33.469Z,68.48
2023-03-13T19:43:33.499Z,69.61
2023-03-13T19:44:33.545Z,67.51
2023-03-13T19:45:33.475Z,68.80
2023-03-13T19:46:33.493Z,68.16
2023-03-13T19:47:33.440Z,71.38
2023-03-13T19:48:33.466Z,71.38
2023-03-13T19:49:33.423Z,70.42
2023-03-13T19:50:33.397Z,69.77
2023-03-13T19:51:33.402Z,70.09
2023-03-13T19:52:33.386Z,69.61
2023-03-13T19:53:33.543Z,67.03
2023-03-13T19:54:33.388Z,69.29
2023-03-13T19:55:33.350Z,70.42
2023-03-13T19:56:33.332Z,69.61
2023-03-13T19:57:33.295Z,67.35
2023-03-13T19:58:33.328Z,71.87
2023-03-13T19:59:33.294Z,70.42
2023-03-13T20:00:33.244Z,68.16
2023-03-13T20:01:33.289Z,67.84
2023-03-13T20:02:33.234Z,69.93
2023-03-13T20:03:34.277Z,66.23
2023-03-13T20:04:33.217Z,68.64
2023-03-13T20:05:33.179Z,69.45
2023-03-13T20:06:33.184Z,65.74
2023-03-13T20:07:33.234Z,69.13
2023-03-13T20:08:33.177Z,69.13
2023-03-13T20:09:35.435Z,68.00
2023-03-13T20:10:33.160Z,65.90
2023-03-13T20:11:33.133Z,68.32
2023-03-13T20:12:33.144Z,69.93
2023-03-13T20:13:33.122Z,70.90
2023-03-13T20:14:33.231Z,67.35
2023-03-13T20:15:33.115Z,70.58
2023-03-13T20:16:35.035Z,68.16
2023-03-13T20:17:33.088Z,67.84
2023-03-13T20:18:33.050Z,68.96
2023-03-13T20:19:33.069Z,69.61
2023-03-13T20:20:33.069Z,69.93
2023-03-13T20:21:33.152Z,68.96
2023-03-13T20:22:33.006Z,68.64
2023-03-13T20:23:32.987Z,69.93
2023-03-13T20:24:33.027Z,68.96
2023-03-13T20:25:33.018Z,70.42
2023-03-13T20:26:32.946Z,69.93
2023-03-13T20:27:32.986Z,70.42
2023-03-13T20:28:32.935Z,69.93
2023-03-13T20:29:32.901Z,67.19
2023-03-13T20:30:34.442Z,68.48
2023-03-13T20:31:33.114Z,70.09
2023-03-13T20:32:32.972Z,68.48
2023-03-13T20:33:32.889Z,71.22
2023-03-13T20:34:32.863Z,69.13
2023-03-13T20:35:32.918Z,69.45
2023-03-13T20:36:32.840Z,71.06
2023-03-13T20:37:32.819Z,71.54
2023-03-13T20:38:32.837Z,70.74
2023-03-13T20:39:32.835Z,71.38
2023-03-13T20:40:32.780Z,68.80
2023-03-13T20:41:40.141Z,67.19
2023-03-13T20:45:50.292Z,68.48
2023-03-13T20:46:50.328Z,67.35
2023-03-13T20:47:51.652Z,67.84
2023-03-13T20:48:50.032Z,69.29
2023-03-13T20:49:50.018Z,68.96
2023-03-13T20:50:50.008Z,69.13
2023-03-13T20:51:50.005Z,68.96
2023-03-13T20:52:50.000Z,69.29
2023-03-13T20:53:49.960Z,70.90
2023-03-13T20:54:49.945Z,68.96
2023-03-13T21:03:54.907Z,65.74
2023-03-13T21:04:54.921Z,66.87
2023-03-13T21:05:54.770Z,68.16
2023-03-13T21:06:54.685Z,70.90
2023-03-13T21:07:54.728Z,68.16
2023-03-13T21:08:54.699Z,65.90
2023-03-13T21:09:54.673Z,67.35
2023-03-13T21:10:54.638Z,68.48
2023-03-13T21:11:54.629Z,68.00
2023-03-13T21:12:54.608Z,70.25
2023-03-13T21:13:54.628Z,68.64
2023-03-13T21:14:54.583Z,68.00
2023-03-13T21:15:54.578Z,68.64
2023-03-13T21:16:54.573Z,69.77
2023-03-13T21:17:54.654Z,68.96
2023-03-13T21:18:54.691Z,69.29
2023-03-13T21:19:54.573Z,69.77
2023-03-13T21:20:54.621Z,69.29
2023-03-13T21:21:54.510Z,66.71
2023-03-13T21:22:54.481Z,69.13
2023-03-13T21:23:54.495Z,68.64
2023-03-13T21:24:54.630Z,68.80
2023-03-13T21:25:54.452Z,66.23
2023-03-13T21:26:55.250Z,67.19
2023-03-13T21:27:54.476Z,67.19
2023-03-13T21:28:54.418Z,67.84
2023-03-13T21:29:54.395Z,68.16
2023-03-13T21:30:54.494Z,67.84
2023-03-13T21:31:54.389Z,69.29
2023-03-13T21:32:54.476Z,67.51
2023-03-13T21:33:54.366Z,66.71
2023-03-13T21:34:54.336Z,67.51
2023-03-13T21:35:54.370Z,66.39
2023-03-13T21:36:54.313Z,67.84
2023-03-13T21:37:54.317Z,68.96
2023-03-13T21:38:54.288Z,69.93
2023-03-13T21:39:54.272Z,67.35
2023-03-13T21:40:54.309Z,66.23
2023-03-13T21:41:54.274Z,66.06
2023-03-13T21:42:54.244Z,65.26
2023-03-13T21:43:54.278Z,67.68
2023-03-13T21:44:54.230Z,68.16
2023-03-13T21:45:54.203Z,66.06
2023-03-13T21:46:54.237Z,66.06
2023-03-13T21:47:54.201Z,63.65
2023-03-13T21:48:54.180Z,69.77
2023-03-13T21:49:54.161Z,68.80
2023-03-13T21:50:54.153Z,70.42
2023-03-13T21:51:54.184Z,68.00
2023-03-13T21:52:54.138Z,66.23